sensor_id;sensor_type;location;lat;lon;timestamp;temperature;humidity
16243;DHT22;11719;51.052;6.982;2023-06-04T00:02:02;19.30;93.90
16243;DHT22;11719;51.052;6.982;2023-06-04T00:04:28;19.20;90.30
16243;DHT22;11719;51.052;6.982;2023-06-04T00:06:54;19.10;90.60
16243;DHT22;11719;51.052;6.982;2023-06-04T00:09:20;19.20;93.10
16243;DHT22;11719;51.052;6.982;2023-06-04T00:11:45;19.20;91.30
16243;DHT22;11719;51.052;6.982;2023-06-04T00:14:12;19.20;91.20
16243;DHT22;11719;51.052;6.982;2023-06-04T00:16:39;19.10;94.10
16243;DHT22;11719;51.052;6.982;2023-06-04T00:19:06;19.20;95.20
16243;DHT22;11719;51.052;6.982;2023-06-04T00:21:32;19.20;93.20
16243;DHT22;11719;51.052;6.982;2023-06-04T00:23:59;19.20;93.50
16243;DHT22;11719;51.052;6.982;2023-06-04T00:26:25;19.10;94.00
16243;DHT22;11719;51.052;6.982;2023-06-04T00:28:51;19.10;91.70
16243;DHT22;11719;51.052;6.982;2023-06-04T00:31:17;19.10;93.90
16243;DHT22;11719;51.052;6.982;2023-06-04T00:33:43;19.10;95.70
16243;DHT22;11719;51.052;6.982;2023-06-04T00:36:08;18.90;90.40
16243;DHT22;11719;51.052;6.982;2023-06-04T00:38:34;18.90;91.10
16243;DHT22;11719;51.052;6.982;2023-06-04T00:41:00;18.80;91.20
16243;DHT22;11719;51.052;6.982;2023-06-04T00:43:26;18.70;91.60
16243;DHT22;11719;51.052;6.982;2023-06-04T00:45:53;18.60;90.70
16243;DHT22;11719;51.052;6.982;2023-06-04T00:48:19;18.60;96.10
16243;DHT22;11719;51.052;6.982;2023-06-04T00:50:47;18.70;94.00
16243;DHT22;11719;51.052;6.982;2023-06-04T00:53:13;18.70;95.00
16243;DHT22;11719;51.052;6.982;2023-06-04T00:55:40;18.80;95.20
16243;DHT22;11719;51.052;6.982;2023-06-04T00:58:06;18.80;92.90
16243;DHT22;11719;51.052;6.982;2023-06-04T01:00:35;18.70;91.40
16243;DHT22;11719;51.052;6.982;2023-06-04T01:03:06;18.70;96.70
16243;DHT22;11719;51.052;6.982;2023-06-04T01:05:37;18.70;95.30
16243;DHT22;11719;51.052;6.982;2023-06-04T01:08:07;18.80;96.40
16243;DHT22;11719;51.052;6.982;2023-06-04T01:10:35;18.80;94.30
16243;DHT22;11719;51.052;6.982;2023-06-04T01:13:01;18.80;95.70
16243;DHT22;11719;51.052;6.982;2023-06-04T01:15:27;18.80;96.40
16243;DHT22;11719;51.052;6.982;2023-06-04T01:17:58;18.80;96.70
16243;DHT22;11719;51.052;6.982;2023-06-04T01:25:41;18.80;95.90
16243;DHT22;11719;51.052;6.982;2023-06-04T01:28:10;18.70;92.10
16243;DHT22;11719;51.052;6.982;2023-06-04T01:30:38;18.50;95.60
16243;DHT22;11719;51.052;6.982;2023-06-04T01:33:12;18.50;92.40
16243;DHT22;11719;51.052;6.982;2023-06-04T01:35:39;18.40;95.10
16243;DHT22;11719;51.052;6.982;2023-06-04T01:38:05;18.50;96.20
16243;DHT22;11719;51.052;6.982;2023-06-04T01:40:32;18.40;97.40
16243;DHT22;11719;51.052;6.982;2023-06-04T01:42:58;18.40;93.10
16243;DHT22;11719;51.052;6.982;2023-06-04T01:45:25;18.40;94.90
16243;DHT22;11719;51.052;6.982;2023-06-04T01:47:52;18.30;94.60
16243;DHT22;11719;51.052;6.982;2023-06-04T01:50:18;18.30;96.80
16243;DHT22;11719;51.052;6.982;2023-06-04T01:52:44;18.20;93.90
16243;DHT22;11719;51.052;6.982;2023-06-04T01:55:12;18.30;94.20
16243;DHT22;11719;51.052;6.982;2023-06-04T01:57:41;18.30;98.10
16243;DHT22;11719;51.052;6.982;2023-06-04T02:00:09;18.40;97.70
16243;DHT22;11719;51.052;6.982;2023-06-04T02:02:39;18.40;96.20
16243;DHT22;11719;51.052;6.982;2023-06-04T02:05:07;18.30;92.60
16243;DHT22;11719;51.052;6.982;2023-06-04T02:07:45;18.30;95.90
16243;DHT22;11719;51.052;6.982;2023-06-04T02:10:15;18.40;96.40
16243;DHT22;11719;51.052;6.982;2023-06-04T02:15:21;18.30;93.20
16243;DHT22;11719;51.052;6.982;2023-06-04T02:17:48;18.30;95.80
16243;DHT22;11719;51.052;6.982;2023-06-04T02:20:16;18.20;93.20
16243;DHT22;11719;51.052;6.982;2023-06-04T02:22:42;18.00;93.60
16243;DHT22;11719;51.052;6.982;2023-06-04T02:25:08;18.00;98.20
16243;DHT22;11719;51.052;6.982;2023-06-04T02:27:35;18.10;94.40
16243;DHT22;11719;51.052;6.982;2023-06-04T02:30:01;18.00;97.00
16243;DHT22;11719;51.052;6.982;2023-06-04T02:32:28;18.10;98.60
16243;DHT22;11719;51.052;6.982;2023-06-04T02:34:54;18.20;95.10
16243;DHT22;11719;51.052;6.982;2023-06-04T02:37:21;18.20;97.90
16243;DHT22;11719;51.052;6.982;2023-06-04T02:39:47;18.20;98.30
16243;DHT22;11719;51.052;6.982;2023-06-04T02:42:13;18.20;95.60
16243;DHT22;11719;51.052;6.982;2023-06-04T02:44:39;18.10;96.90
16243;DHT22;11719;51.052;6.982;2023-06-04T02:47:05;18.00;97.20
16243;DHT22;11719;51.052;6.982;2023-06-04T02:49:31;18.10;96.40
16243;DHT22;11719;51.052;6.982;2023-06-04T02:51:57;18.10;98.50
16243;DHT22;11719;51.052;6.982;2023-06-04T02:54:23;18.20;95.50
16243;DHT22;11719;51.052;6.982;2023-06-04T02:56:49;18.20;95.20
16243;DHT22;11719;51.052;6.982;2023-06-04T02:59:15;18.00;97.80
16243;DHT22;11719;51.052;6.982;2023-06-04T03:01:40;18.10;98.10
16243;DHT22;11719;51.052;6.982;2023-06-04T03:04:06;18.00;98.70
16243;DHT22;11719;51.052;6.982;2023-06-04T03:06:36;18.10;98.50
16243;DHT22;11719;51.052;6.982;2023-06-04T03:09:04;18.10;94.90
16243;DHT22;11719;51.052;6.982;2023-06-04T03:11:30;18.00;97.30
16243;DHT22;11719;51.052;6.982;2023-06-04T03:13:56;18.00;96.90
16243;DHT22;11719;51.052;6.982;2023-06-04T03:16:22;17.90;98.50
16243;DHT22;11719;51.052;6.982;2023-06-04T03:18:48;18.00;99.10
16243;DHT22;11719;51.052;6.982;2023-06-04T03:21:14;18.00;98.20
16243;DHT22;11719;51.052;6.982;2023-06-04T03:23:40;18.10;98.60
16243;DHT22;11719;51.052;6.982;2023-06-04T03:26:06;18.00;94.70
16243;DHT22;11719;51.052;6.982;2023-06-04T03:28:33;18.00;95.00
16243;DHT22;11719;51.052;6.982;2023-06-04T03:30:59;17.70;95.40
16243;DHT22;11719;51.052;6.982;2023-06-04T03:33:25;17.80;95.80
16243;DHT22;11719;51.052;6.982;2023-06-04T03:35:51;17.60;96.70
16243;DHT22;11719;51.052;6.982;2023-06-04T03:38:24;17.70;98.90
16243;DHT22;11719;51.052;6.982;2023-06-04T03:40:53;17.60;95.90
16243;DHT22;11719;51.052;6.982;2023-06-04T03:43:20;17.50;96.70
16243;DHT22;11719;51.052;6.982;2023-06-04T03:45:46;17.60;96.20
16243;DHT22;11719;51.052;6.982;2023-06-04T03:48:12;17.60;99.90
16243;DHT22;11719;51.052;6.982;2023-06-04T03:50:38;17.60;96.20
16243;DHT22;11719;51.052;6.982;2023-06-04T03:53:04;17.60;99.80
16243;DHT22;11719;51.052;6.982;2023-06-04T03:55:32;17.60;98.60
16243;DHT22;11719;51.052;6.982;2023-06-04T03:57:59;17.50;95.90
16243;DHT22;11719;51.052;6.982;2023-06-04T04:00:25;17.40;97.10
16243;DHT22;11719;51.052;6.982;2023-06-04T04:02:50;17.40;98.90
16243;DHT22;11719;51.052;6.982;2023-06-04T04:05:16;17.40;98.40
16243;DHT22;11719;51.052;6.982;2023-06-04T04:07:42;17.50;97.80
16243;DHT22;11719;51.052;6.982;2023-06-04T04:10:08;17.40;97.70
16243;DHT22;11719;51.052;6.982;2023-06-04T04:12:35;17.30;99.20
16243;DHT22;11719;51.052;6.982;2023-06-04T04:15:01;17.40;95.40
16243;DHT22;11719;51.052;6.982;2023-06-04T04:17:27;17.40;99.90
16243;DHT22;11719;51.052;6.982;2023-06-04T04:19:52;17.30;97.50
16243;DHT22;11719;51.052;6.982;2023-06-04T04:22:18;17.20;95.40
16243;DHT22;11719;51.052;6.982;2023-06-04T04:24:44;17.20;96.70
16243;DHT22;11719;51.052;6.982;2023-06-04T04:27:10;17.10;95.80
16243;DHT22;11719;51.052;6.982;2023-06-04T04:29:39;17.10;97.10
16243;DHT22;11719;51.052;6.982;2023-06-04T04:32:07;17.10;98.40
16243;DHT22;11719;51.052;6.982;2023-06-04T04:34:37;17.10;99.00
16243;DHT22;11719;51.052;6.982;2023-06-04T04:37:08;17.10;99.30
16243;DHT22;11719;51.052;6.982;2023-06-04T04:39:35;17.10;99.40
16243;DHT22;11719;51.052;6.982;2023-06-04T04:42:02;17.20;98.70
16243;DHT22;11719;51.052;6.982;2023-06-04T04:44:28;17.20;98.30
16243;DHT22;11719;51.052;6.982;2023-06-04T04:46:54;17.10;97.00
16243;DHT22;11719;51.052;6.982;2023-06-04T04:49:20;17.20;96.90
16243;DHT22;11719;51.052;6.982;2023-06-04T04:51:46;17.20;97.90
16243;DHT22;11719;51.052;6.982;2023-06-04T04:54:12;17.10;97.20
16243;DHT22;11719;51.052;6.982;2023-06-04T04:56:38;17.20;98.50
16243;DHT22;11719;51.052;6.982;2023-06-04T04:59:03;17.20;97.70
16243;DHT22;11719;51.052;6.982;2023-06-04T05:01:29;17.10;98.20
16243;DHT22;11719;51.052;6.982;2023-06-04T05:03:55;17.10;97.80
16243;DHT22;11719;51.052;6.982;2023-06-04T05:06:21;17.10;98.50
16243;DHT22;11719;51.052;6.982;2023-06-04T05:08:47;17.10;98.60
16243;DHT22;11719;51.052;6.982;2023-06-04T05:11:13;17.00;98.40
16243;DHT22;11719;51.052;6.982;2023-06-04T05:13:39;17.00;98.60
16243;DHT22;11719;51.052;6.982;2023-06-04T05:16:07;17.00;97.70
16243;DHT22;11719;51.052;6.982;2023-06-04T05:18:34;17.10;97.10
16243;DHT22;11719;51.052;6.982;2023-06-04T05:21:00;17.10;97.80
16243;DHT22;11719;51.052;6.982;2023-06-04T05:23:28;17.20;97.00
16243;DHT22;11719;51.052;6.982;2023-06-04T05:25:58;17.20;97.10
16243;DHT22;11719;51.052;6.982;2023-06-04T05:28:25;17.20;96.80
16243;DHT22;11719;51.052;6.982;2023-06-04T05:30:53;17.20;96.90
16243;DHT22;11719;51.052;6.982;2023-06-04T05:33:27;17.10;96.70
16243;DHT22;11719;51.052;6.982;2023-06-04T05:35:54;17.10;96.50
16243;DHT22;11719;51.052;6.982;2023-06-04T05:38:23;17.20;97.00
16243;DHT22;11719;51.052;6.982;2023-06-04T05:40:54;17.20;96.20
16243;DHT22;11719;51.052;6.982;2023-06-04T05:43:21;17.20;96.30
16243;DHT22;11719;51.052;6.982;2023-06-04T05:45:47;17.20;96.00
16243;DHT22;11719;51.052;6.982;2023-06-04T05:48:14;17.10;97.20
16243;DHT22;11719;51.052;6.982;2023-06-04T05:50:40;17.10;96.10
16243;DHT22;11719;51.052;6.982;2023-06-04T05:53:06;17.10;96.30
16243;DHT22;11719;51.052;6.982;2023-06-04T05:55:32;17.00;96.50
16243;DHT22;11719;51.052;6.982;2023-06-04T05:57:58;17.10;96.20
16243;DHT22;11719;51.052;6.982;2023-06-04T06:00:24;17.10;96.00
16243;DHT22;11719;51.052;6.982;2023-06-04T06:02:50;17.20;95.70
16243;DHT22;11719;51.052;6.982;2023-06-04T06:05:18;17.30;95.40
16243;DHT22;11719;51.052;6.982;2023-06-04T06:07:45;17.40;95.60
16243;DHT22;11719;51.052;6.982;2023-06-04T06:10:11;17.50;95.20
16243;DHT22;11719;51.052;6.982;2023-06-04T06:12:37;17.50;95.40
16243;DHT22;11719;51.052;6.982;2023-06-04T06:15:04;17.60;95.60
16243;DHT22;11719;51.052;6.982;2023-06-04T06:17:31;17.60;95.70
16243;DHT22;11719;51.052;6.982;2023-06-04T06:19:58;17.70;97.60
16243;DHT22;11719;51.052;6.982;2023-06-04T06:22:24;17.90;98.70
16243;DHT22;11719;51.052;6.982;2023-06-04T06:24:50;17.90;96.10
16243;DHT22;11719;51.052;6.982;2023-06-04T06:27:16;17.90;96.00
16243;DHT22;11719;51.052;6.982;2023-06-04T06:29:43;17.90;95.80
16243;DHT22;11719;51.052;6.982;2023-06-04T06:32:10;18.10;98.90
16243;DHT22;11719;51.052;6.982;2023-06-04T06:34:36;18.10;95.80
16243;DHT22;11719;51.052;6.982;2023-06-04T06:37:03;18.10;95.40
16243;DHT22;11719;51.052;6.982;2023-06-04T06:39:31;18.10;95.00
16243;DHT22;11719;51.052;6.982;2023-06-04T06:41:57;18.30;97.20
16243;DHT22;11719;51.052;6.982;2023-06-04T06:44:23;18.30;95.70
16243;DHT22;11719;51.052;6.982;2023-06-04T06:46:49;18.40;95.80
16243;DHT22;11719;51.052;6.982;2023-06-04T06:49:15;18.50;98.60
16243;DHT22;11719;51.052;6.982;2023-06-04T06:51:41;18.70;96.50
16243;DHT22;11719;51.052;6.982;2023-06-04T06:54:10;18.70;94.20
16243;DHT22;11719;51.052;6.982;2023-06-04T06:56:36;18.70;94.20
16243;DHT22;11719;51.052;6.982;2023-06-04T06:59:02;18.70;95.90
16243;DHT22;11719;51.052;6.982;2023-06-04T07:01:28;18.70;94.80
16243;DHT22;11719;51.052;6.982;2023-06-04T07:03:53;18.70;93.60
16243;DHT22;11719;51.052;6.982;2023-06-04T07:06:19;18.70;93.20
16243;DHT22;11719;51.052;6.982;2023-06-04T07:08:45;18.70;94.10
16243;DHT22;11719;51.052;6.982;2023-06-04T07:11:13;18.90;94.80
16243;DHT22;11719;51.052;6.982;2023-06-04T07:13:39;18.90;93.00
16243;DHT22;11719;51.052;6.982;2023-06-04T07:16:06;18.90;93.30
16243;DHT22;11719;51.052;6.982;2023-06-04T07:18:32;19.00;93.40
16243;DHT22;11719;51.052;6.982;2023-06-04T07:20:58;19.00;94.00
16243;DHT22;11719;51.052;6.982;2023-06-04T07:23:24;19.00;92.80
16243;DHT22;11719;51.052;6.982;2023-06-04T07:25:50;19.00;94.10
16243;DHT22;11719;51.052;6.982;2023-06-04T07:28:16;19.20;93.50
16243;DHT22;11719;51.052;6.982;2023-06-04T07:30:42;19.20;93.70
16243;DHT22;11719;51.052;6.982;2023-06-04T07:33:10;19.30;92.80
16243;DHT22;11719;51.052;6.982;2023-06-04T07:35:36;19.30;93.30
16243;DHT22;11719;51.052;6.982;2023-06-04T07:38:01;19.40;96.50
16243;DHT22;11719;51.052;6.982;2023-06-04T07:40:27;19.50;93.00
16243;DHT22;11719;51.052;6.982;2023-06-04T07:42:53;19.50;92.80
16243;DHT22;11719;51.052;6.982;2023-06-04T07:45:19;19.50;92.90
16243;DHT22;11719;51.052;6.982;2023-06-04T07:47:45;19.50;92.20
16243;DHT22;11719;51.052;6.982;2023-06-04T07:50:11;19.60;92.70
16243;DHT22;11719;51.052;6.982;2023-06-04T07:52:37;19.60;96.10
16243;DHT22;11719;51.052;6.982;2023-06-04T07:55:03;19.60;94.70
16243;DHT22;11719;51.052;6.982;2023-06-04T07:57:29;19.70;91.60
16243;DHT22;11719;51.052;6.982;2023-06-04T07:59:55;19.70;92.30
16243;DHT22;11719;51.052;6.982;2023-06-04T08:02:22;19.70;92.20
16243;DHT22;11719;51.052;6.982;2023-06-04T08:04:48;19.80;91.40
16243;DHT22;11719;51.052;6.982;2023-06-04T08:07:14;19.80;92.90
16243;DHT22;11719;51.052;6.982;2023-06-04T08:09:40;19.80;94.50
16243;DHT22;11719;51.052;6.982;2023-06-04T08:12:06;19.70;95.10
16243;DHT22;11719;51.052;6.982;2023-06-04T08:14:32;19.70;96.20
16243;DHT22;11719;51.052;6.982;2023-06-04T08:16:58;19.60;96.30
16243;DHT22;11719;51.052;6.982;2023-06-04T08:19:24;19.50;96.60
16243;DHT22;11719;51.052;6.982;2023-06-04T08:21:50;19.40;96.80
16243;DHT22;11719;51.052;6.982;2023-06-04T08:24:16;19.30;96.70
16243;DHT22;11719;51.052;6.982;2023-06-04T08:26:41;19.40;96.80
16243;DHT22;11719;51.052;6.982;2023-06-04T08:29:08;19.50;96.20
16243;DHT22;11719;51.052;6.982;2023-06-04T08:31:34;19.40;96.50
16243;DHT22;11719;51.052;6.982;2023-06-04T08:34:00;19.40;95.10
16243;DHT22;11719;51.052;6.982;2023-06-04T08:36:27;19.40;96.80
16243;DHT22;11719;51.052;6.982;2023-06-04T08:38:53;19.30;97.00
16243;DHT22;11719;51.052;6.982;2023-06-04T08:41:28;19.30;97.00
16243;DHT22;11719;51.052;6.982;2023-06-04T08:43:58;19.40;96.40
16243;DHT22;11719;51.052;6.982;2023-06-04T08:46:27;19.40;96.70
16243;DHT22;11719;51.052;6.982;2023-06-04T08:48:56;19.40;96.80
16243;DHT22;11719;51.052;6.982;2023-06-04T08:51:28;19.30;96.70
16243;DHT22;11719;51.052;6.982;2023-06-04T08:53:58;19.30;96.70
16243;DHT22;11719;51.052;6.982;2023-06-04T08:56:25;19.30;96.90
16243;DHT22;11719;51.052;6.982;2023-06-04T08:58:56;19.30;96.50
16243;DHT22;11719;51.052;6.982;2023-06-04T09:01:26;19.30;96.90
16243;DHT22;11719;51.052;6.982;2023-06-04T09:03:52;19.30;96.40
16243;DHT22;11719;51.052;6.982;2023-06-04T09:06:18;19.30;96.60
16243;DHT22;11719;51.052;6.982;2023-06-04T09:08:44;19.30;96.60
16243;DHT22;11719;51.052;6.982;2023-06-04T09:11:13;19.30;96.50
16243;DHT22;11719;51.052;6.982;2023-06-04T09:13:40;19.30;96.40
16243;DHT22;11719;51.052;6.982;2023-06-04T09:16:08;19.30;96.10
16243;DHT22;11719;51.052;6.982;2023-06-04T09:18:34;19.30;96.40
16243;DHT22;11719;51.052;6.982;2023-06-04T09:21:04;19.30;96.10
16243;DHT22;11719;51.052;6.982;2023-06-04T09:23:34;19.40;96.10
16243;DHT22;11719;51.052;6.982;2023-06-04T09:26:10;19.40;95.50
16243;DHT22;11719;51.052;6.982;2023-06-04T09:28:41;19.60;93.60
16243;DHT22;11719;51.052;6.982;2023-06-04T09:31:14;19.70;92.40
16243;DHT22;11719;51.052;6.982;2023-06-04T09:33:48;19.60;95.30
16243;DHT22;11719;51.052;6.982;2023-06-04T09:36:15;19.60;96.20
16243;DHT22;11719;51.052;6.982;2023-06-04T09:38:42;19.40;95.70
16243;DHT22;11719;51.052;6.982;2023-06-04T09:41:16;19.50;96.20
16243;DHT22;11719;51.052;6.982;2023-06-04T09:43:46;19.70;91.50
16243;DHT22;11719;51.052;6.982;2023-06-04T09:46:17;19.70;94.20
16243;DHT22;11719;51.052;6.982;2023-06-04T09:48:44;19.50;95.00
16243;DHT22;11719;51.052;6.982;2023-06-04T09:51:14;19.50;95.50
16243;DHT22;11719;51.052;6.982;2023-06-04T09:53:41;19.40;94.20
16243;DHT22;11719;51.052;6.982;2023-06-04T09:56:07;19.50;94.70
16243;DHT22;11719;51.052;6.982;2023-06-04T09:58:34;19.40;95.00
16243;DHT22;11719;51.052;6.982;2023-06-04T10:01:03;19.50;95.60
16243;DHT22;11719;51.052;6.982;2023-06-04T10:03:32;19.50;95.00
16243;DHT22;11719;51.052;6.982;2023-06-04T10:06:00;19.70;94.10
16243;DHT22;11719;51.052;6.982;2023-06-04T10:08:29;19.60;94.80
16243;DHT22;11719;51.052;6.982;2023-06-04T10:10:58;19.50;95.60
16243;DHT22;11719;51.052;6.982;2023-06-04T10:13:27;19.40;94.70
16243;DHT22;11719;51.052;6.982;2023-06-04T10:16:00;19.30;94.00
16243;DHT22;11719;51.052;6.982;2023-06-04T10:18:30;19.40;95.20
16243;DHT22;11719;51.052;6.982;2023-06-04T10:20:56;19.40;95.10
16243;DHT22;11719;51.052;6.982;2023-06-04T10:23:23;19.40;96.00
16243;DHT22;11719;51.052;6.982;2023-06-04T10:25:50;19.50;94.80
16243;DHT22;11719;51.052;6.982;2023-06-04T10:28:23;19.50;95.10
16243;DHT22;11719;51.052;6.982;2023-06-04T10:30:49;19.50;95.80
16243;DHT22;11719;51.052;6.982;2023-06-04T10:33:19;19.50;94.40
16243;DHT22;11719;51.052;6.982;2023-06-04T10:35:46;19.70;94.10
16243;DHT22;11719;51.052;6.982;2023-06-04T10:38:13;19.70;94.70
16243;DHT22;11719;51.052;6.982;2023-06-04T10:40:41;19.70;94.50
16243;DHT22;11719;51.052;6.982;2023-06-04T10:43:11;19.60;95.20
16243;DHT22;11719;51.052;6.982;2023-06-04T10:45:39;19.70;93.90
16243;DHT22;11719;51.052;6.982;2023-06-04T10:48:08;19.80;94.70
16243;DHT22;11719;51.052;6.982;2023-06-04T10:50:47;19.70;94.70
16243;DHT22;11719;51.052;6.982;2023-06-04T10:53:14;19.70;94.40
16243;DHT22;11719;51.052;6.982;2023-06-04T10:55:47;19.80;94.00
16243;DHT22;11719;51.052;6.982;2023-06-04T10:58:13;19.80;94.60
16243;DHT22;11719;51.052;6.982;2023-06-04T11:00:44;19.90;93.50
16243;DHT22;11719;51.052;6.982;2023-06-04T11:03:15;19.80;94.60
16243;DHT22;11719;51.052;6.982;2023-06-04T11:05:45;19.80;94.70
16243;DHT22;11719;51.052;6.982;2023-06-04T11:08:13;20.00;94.00
16243;DHT22;11719;51.052;6.982;2023-06-04T11:10:42;19.90;94.60
16243;DHT22;11719;51.052;6.982;2023-06-04T11:13:09;19.80;94.60
16243;DHT22;11719;51.052;6.982;2023-06-04T11:15:42;19.90;94.10
16243;DHT22;11719;51.052;6.982;2023-06-04T11:18:22;20.00;93.40
16243;DHT22;11719;51.052;6.982;2023-06-04T11:20:57;19.80;94.50
16243;DHT22;11719;51.052;6.982;2023-06-04T11:23:25;19.80;93.80
16243;DHT22;11719;51.052;6.982;2023-06-04T11:25:52;19.90;94.70
16243;DHT22;11719;51.052;6.982;2023-06-04T11:28:19;20.10;85.30
16243;DHT22;11719;51.052;6.982;2023-06-04T11:33:23;20.40;91.70
16243;DHT22;11719;51.052;6.982;2023-06-04T11:35:49;20.70;88.00
16243;DHT22;11719;51.052;6.982;2023-06-04T11:38:14;20.30;92.20
16243;DHT22;11719;51.052;6.982;2023-06-04T11:40:40;20.10;93.10
16243;DHT22;11719;51.052;6.982;2023-06-04T11:43:10;19.90;93.70
16243;DHT22;11719;51.052;6.982;2023-06-04T11:45:36;19.80;93.30
16243;DHT22;11719;51.052;6.982;2023-06-04T11:48:04;19.80;92.30
16243;DHT22;11719;51.052;6.982;2023-06-04T11:50:31;19.80;93.70
16243;DHT22;11719;51.052;6.982;2023-06-04T11:52:57;20.00;84.70
16243;DHT22;11719;51.052;6.982;2023-06-04T11:55:23;19.90;93.30
16243;DHT22;11719;51.052;6.982;2023-06-04T11:57:50;19.90;93.50
16243;DHT22;11719;51.052;6.982;2023-06-04T12:00:17;20.00;91.70
16243;DHT22;11719;51.052;6.982;2023-06-04T12:02:52;20.10;91.80
16243;DHT22;11719;51.052;6.982;2023-06-04T12:05:20;20.20;91.30
16243;DHT22;11719;51.052;6.982;2023-06-04T12:07:51;20.10;92.20
16243;DHT22;11719;51.052;6.982;2023-06-04T12:10:21;20.10;92.90
16243;DHT22;11719;51.052;6.982;2023-06-04T12:12:53;20.20;91.60
16243;DHT22;11719;51.052;6.982;2023-06-04T12:15:21;20.20;92.30
16243;DHT22;11719;51.052;6.982;2023-06-04T12:17:51;20.00;93.90
16243;DHT22;11719;51.052;6.982;2023-06-04T12:20:39;20.00;92.50
16243;DHT22;11719;51.052;6.982;2023-06-04T12:23:06;20.00;93.40
16243;DHT22;11719;51.052;6.982;2023-06-04T12:25:34;19.80;93.80
16243;DHT22;11719;51.052;6.982;2023-06-04T13:01:27;20.80;92.00
16243;DHT22;11719;51.052;6.982;2023-06-04T13:03:53;20.50;92.80
16243;DHT22;11719;51.052;6.982;2023-06-04T13:06:20;20.30;93.30
16243;DHT22;11719;51.052;6.982;2023-06-04T13:08:46;20.40;92.80
16243;DHT22;11719;51.052;6.982;2023-06-04T13:11:12;20.40;92.90
16243;DHT22;11719;51.052;6.982;2023-06-04T13:13:38;20.30;93.50
16243;DHT22;11719;51.052;6.982;2023-06-04T13:16:04;20.40;91.00
16243;DHT22;11719;51.052;6.982;2023-06-04T13:18:30;20.60;91.50
16243;DHT22;11719;51.052;6.982;2023-06-04T13:20:56;20.70;91.60
16243;DHT22;11719;51.052;6.982;2023-06-04T13:23:22;20.80;92.00
16243;DHT22;11719;51.052;6.982;2023-06-04T13:25:48;20.80;92.10
16243;DHT22;11719;51.052;6.982;2023-06-04T13:28:14;20.80;91.10
16243;DHT22;11719;51.052;6.982;2023-06-04T13:30:40;20.70;90.90
16243;DHT22;11719;51.052;6.982;2023-06-04T13:33:06;20.80;91.90
16243;DHT22;11719;51.052;6.982;2023-06-04T13:35:33;20.80;91.00
16243;DHT22;11719;51.052;6.982;2023-06-04T13:37:59;21.00;91.30
16243;DHT22;11719;51.052;6.982;2023-06-04T13:40:25;21.00;90.80
16243;DHT22;11719;51.052;6.982;2023-06-04T13:42:50;20.80;92.00
16243;DHT22;11719;51.052;6.982;2023-06-04T13:45:16;20.80;91.60
16243;DHT22;11719;51.052;6.982;2023-06-04T13:47:48;20.80;91.50
16243;DHT22;11719;51.052;6.982;2023-06-04T13:50:14;20.70;91.90
16243;DHT22;11719;51.052;6.982;2023-06-04T13:52:40;20.60;92.50
16243;DHT22;11719;51.052;6.982;2023-06-04T13:55:07;20.60;91.90
16243;DHT22;11719;51.052;6.982;2023-06-04T13:57:33;20.40;92.30
16243;DHT22;11719;51.052;6.982;2023-06-04T13:59:59;20.40;92.60
16243;DHT22;11719;51.052;6.982;2023-06-04T14:02:25;20.60;91.70
16243;DHT22;11719;51.052;6.982;2023-06-04T14:04:53;21.00;90.00
16243;DHT22;11719;51.052;6.982;2023-06-04T14:07:19;21.60;90.30
16243;DHT22;11719;51.052;6.982;2023-06-04T14:09:45;21.90;89.20
16243;DHT22;11719;51.052;6.982;2023-06-04T14:12:11;22.20;87.10
16243;DHT22;11719;51.052;6.982;2023-06-04T14:14:38;21.80;89.80
16243;DHT22;11719;51.052;6.982;2023-06-04T14:17:05;21.70;89.40
16243;DHT22;11719;51.052;6.982;2023-06-04T14:19:32;21.50;90.50
16243;DHT22;11719;51.052;6.982;2023-06-04T14:21:58;21.40;90.80
16243;DHT22;11719;51.052;6.982;2023-06-04T14:24:24;21.40;90.80
16243;DHT22;11719;51.052;6.982;2023-06-04T14:26:50;21.10;91.40
16243;DHT22;11719;51.052;6.982;2023-06-04T14:29:16;21.00;91.60
16243;DHT22;11719;51.052;6.982;2023-06-04T14:31:42;21.20;91.70
16243;DHT22;11719;51.052;6.982;2023-06-04T14:34:08;21.20;88.40
16243;DHT22;11719;51.052;6.982;2023-06-04T14:36:35;21.20;91.30
16243;DHT22;11719;51.052;6.982;2023-06-04T14:39:01;21.10;91.90
16243;DHT22;11719;51.052;6.982;2023-06-04T14:41:27;21.00;92.00
16243;DHT22;11719;51.052;6.982;2023-06-04T14:43:53;21.10;91.80
16243;DHT22;11719;51.052;6.982;2023-06-04T14:46:19;20.80;92.40
16243;DHT22;11719;51.052;6.982;2023-06-04T14:48:45;20.50;92.50
16243;DHT22;11719;51.052;6.982;2023-06-04T14:51:11;20.40;93.00
16243;DHT22;11719;51.052;6.982;2023-06-04T14:53:37;20.40;93.10
16243;DHT22;11719;51.052;6.982;2023-06-04T14:56:07;20.40;93.40
16243;DHT22;11719;51.052;6.982;2023-06-04T14:58:33;20.40;93.10
16243;DHT22;11719;51.052;6.982;2023-06-04T15:01:00;20.70;90.30
16243;DHT22;11719;51.052;6.982;2023-06-04T15:03:28;20.80;91.20
16243;DHT22;11719;51.052;6.982;2023-06-04T15:05:54;20.60;92.70
16243;DHT22;11719;51.052;6.982;2023-06-04T15:08:20;20.60;90.90
16243;DHT22;11719;51.052;6.982;2023-06-04T15:10:46;20.80;91.80
16243;DHT22;11719;51.052;6.982;2023-06-04T15:13:12;21.00;91.70
16243;DHT22;11719;51.052;6.982;2023-06-04T15:15:38;20.80;92.30
16243;DHT22;11719;51.052;6.982;2023-06-04T15:18:03;20.40;93.40
16243;DHT22;11719;51.052;6.982;2023-06-04T15:20:32;20.30;93.30
16243;DHT22;11719;51.052;6.982;2023-06-04T15:22:58;20.40;92.60
16243;DHT22;11719;51.052;6.982;2023-06-04T15:25:24;20.10;94.10
16243;DHT22;11719;51.052;6.982;2023-06-04T15:27:50;20.00;93.80
16243;DHT22;11719;51.052;6.982;2023-06-04T15:30:15;19.90;94.20
16243;DHT22;11719;51.052;6.982;2023-06-04T15:32:43;19.80;93.70
16243;DHT22;11719;51.052;6.982;2023-06-04T15:35:09;19.80;94.30
16243;DHT22;11719;51.052;6.982;2023-06-04T15:37:36;19.80;94.30
16243;DHT22;11719;51.052;6.982;2023-06-04T15:40:02;19.90;94.00
16243;DHT22;11719;51.052;6.982;2023-06-04T15:42:31;19.90;93.40
16243;DHT22;11719;51.052;6.982;2023-06-04T15:44:57;19.80;94.50
16243;DHT22;11719;51.052;6.982;2023-06-04T15:47:23;19.70;94.20
16243;DHT22;11719;51.052;6.982;2023-06-04T15:49:49;19.70;94.30
16243;DHT22;11719;51.052;6.982;2023-06-04T15:52:15;19.80;93.90
16243;DHT22;11719;51.052;6.982;2023-06-04T15:54:41;19.70;94.20
16243;DHT22;11719;51.052;6.982;2023-06-04T15:57:07;19.70;94.50
16243;DHT22;11719;51.052;6.982;2023-06-04T15:59:32;19.80;94.50
16243;DHT22;11719;51.052;6.982;2023-06-04T16:01:59;19.80;94.00
16243;DHT22;11719;51.052;6.982;2023-06-04T16:04:25;19.90;93.90
16243;DHT22;11719;51.052;6.982;2023-06-04T16:06:51;20.10;91.40
16243;DHT22;11719;51.052;6.982;2023-06-04T16:09:17;20.10;93.80
16243;DHT22;11719;51.052;6.982;2023-06-04T16:11:43;20.30;92.20
16243;DHT22;11719;51.052;6.982;2023-06-04T16:14:09;20.50;91.60